createdAt,value
2019-01-31T00:04:50.269Z,5.80
2019-01-31T00:11:39.043Z,4.27
2019-01-31T00:18:02.313Z,3.75
2019-01-31T00:21:32.390Z,5.33
2019-01-31T00:24:37.436Z,4.37
2019-01-31T00:28:01.960Z,3.43
2019-01-31T00:31:24.450Z,4.60
2019-01-31T00:34:55.507Z,3.73
2019-01-31T00:37:55.291Z,3.10
2019-01-31T00:41:27.668Z,3.37
2019-01-31T00:44:45.293Z,4.10
2019-01-31T00:48:15.354Z,3.15
2019-01-31T00:54:20.640Z,4.15
2019-01-31T00:57:58.343Z,3.72
2019-01-31T01:01:31.512Z,3.30
2019-01-31T01:04:55.279Z,3.30
2019-01-31T01:11:23.953Z,4.03
2019-01-31T01:14:52.296Z,3.87
2019-01-31T01:18:08.664Z,3.40
2019-01-31T01:20:52.690Z,3.50
2019-01-31T01:24:17.609Z,4.00
2019-01-31T01:27:23.520Z,3.57
2019-01-31T01:30:31.785Z,2.97
2019-01-31T01:34:05.295Z,2.65
2019-01-31T01:40:39.275Z,3.67
2019-01-31T01:46:37.677Z,3.00
2019-01-31T01:50:10.661Z,3.77
2019-01-31T01:53:17.697Z,2.60
2019-01-31T01:56:41.093Z,2.50
2019-01-31T01:59:34.301Z,2.50
2019-01-31T02:06:13.951Z,1.87
2019-01-31T02:09:30.069Z,2.22
2019-01-31T02:13:01.347Z,2.25
2019-01-31T02:19:55.730Z,2.23
2019-01-31T02:23:33.283Z,3.33
2019-01-31T02:30:36.670Z,1.80
2019-01-31T02:33:49.777Z,2.03
2019-01-31T02:36:54.544Z,2.27
2019-01-31T02:40:34.740Z,1.90
2019-01-31T02:44:10.297Z,2.35
2019-01-31T02:47:45.735Z,1.90
2019-01-31T02:51:20.697Z,1.62
2019-01-31T02:54:51.299Z,1.77
2019-01-31T03:01:16.293Z,2.03
2019-01-31T03:07:57.962Z,1.20
2019-01-31T03:10:49.338Z,1.63
2019-01-31T03:14:10.055Z,1.40
2019-01-31T03:17:47.156Z,1.42
2019-01-31T03:21:13.919Z,1.32
2019-01-31T03:24:43.567Z,1.90
2019-01-31T03:28:24.958Z,1.33
2019-01-31T03:31:54.478Z,2.10
2019-01-31T03:35:19.290Z,1.67
2019-01-31T03:41:29.507Z,2.20
2019-01-31T03:44:26.339Z,1.90
2019-01-31T03:47:49.722Z,1.90
2019-01-31T03:51:10.731Z,1.73
2019-01-31T03:54:38.360Z,1.60
2019-01-31T03:58:24.652Z,1.80
2019-01-31T04:02:05.515Z,2.00
2019-01-31T04:05:23.298Z,1.67
2019-01-31T04:09:24.956Z,1.50
2019-01-31T04:11:57.095Z,1.52
2019-01-31T04:14:28.970Z,3.00
2019-01-31T04:17:01.132Z,1.47
2019-01-31T04:22:03.886Z,2.15
2019-01-31T04:24:35.866Z,1.65
2019-01-31T04:27:07.941Z,1.00
2019-01-31T04:29:39.950Z,1.80
2019-01-31T04:32:12.100Z,1.90
2019-01-31T04:37:14.769Z,4.23
2019-01-31T04:39:46.877Z,1.50
2019-01-31T04:42:18.923Z,2.17
2019-01-31T04:44:50.953Z,3.30
2019-01-31T04:47:22.925Z,3.17
2019-01-31T04:49:54.931Z,1.35
2019-01-31T04:52:27.107Z,1.55
2019-01-31T04:57:29.694Z,1.77
2019-01-31T05:00:01.729Z,2.10
2019-01-31T05:02:33.747Z,10.03
2019-01-31T05:05:06.945Z,1.57
2019-01-31T05:07:39.282Z,1.83
2019-01-31T05:12:44.292Z,1.53
2019-01-31T05:15:17.682Z,2.00
2019-01-31T05:17:50.126Z,1.37
2019-01-31T05:25:23.962Z,2.63
2019-01-31T05:27:56.300Z,11.60
2019-01-31T05:38:02.288Z,1.87
2019-01-31T05:40:34.289Z,3.50
2019-01-31T05:45:37.303Z,1.93
2019-01-31T05:48:08.958Z,1.80
2019-01-31T05:50:40.957Z,1.65
2019-01-31T05:53:12.928Z,1.53
2019-01-31T05:55:44.954Z,6.33
2019-01-31T05:58:16.903Z,2.15
2019-01-31T06:00:48.958Z,2.33
2019-01-31T06:03:20.951Z,1.90
2019-01-31T06:05:52.953Z,3.37
2019-01-31T06:08:25.030Z,3.07
2019-01-31T06:11:07.122Z,2.20
2019-01-31T06:13:30.959Z,2.02
2019-01-31T06:16:02.934Z,1.57
2019-01-31T06:18:34.945Z,1.73
2019-01-31T06:21:07.032Z,2.17
2019-01-31T06:23:38.949Z,1.57
2019-01-31T06:26:10.940Z,2.20
2019-01-31T06:28:43.282Z,1.77
2019-01-31T06:33:48.658Z,1.52
2019-01-31T06:36:20.736Z,1.60
2019-01-31T06:38:52.726Z,1.93
2019-01-31T06:41:24.793Z,2.00
2019-01-31T06:43:56.882Z,2.33
2019-01-31T06:46:28.933Z,2.33
2019-01-31T06:49:00.962Z,2.95
2019-01-31T06:51:32.946Z,53.78
2019-01-31T06:54:07.585Z,2.45
2019-01-31T06:56:38.674Z,1.90
2019-01-31T06:59:10.711Z,2.10
2019-01-31T07:01:42.688Z,2.17
2019-01-31T07:04:14.753Z,2.03
2019-01-31T07:06:46.928Z,2.13
2019-01-31T07:09:18.943Z,2.02
2019-01-31T07:11:50.919Z,4.58
2019-01-31T07:14:22.936Z,4.30
2019-01-31T07:16:54.942Z,2.50
2019-01-31T07:19:26.953Z,2.67
2019-01-31T07:21:58.925Z,3.92
2019-01-31T07:24:30.923Z,2.17
2019-01-31T07:27:07.287Z,5.03
2019-01-31T07:32:09.945Z,8.47
2019-01-31T07:34:41.913Z,3.33
2019-01-31T07:37:13.945Z,3.05
2019-01-31T07:39:45.948Z,3.65
2019-01-31T07:42:19.725Z,2.10
2019-01-31T07:44:53.392Z,2.17
2019-01-31T07:47:25.377Z,3.17
2019-01-31T07:49:57.787Z,26.73
2019-01-31T07:52:30.321Z,2.00
2019-01-31T07:57:34.277Z,2.20
2019-01-31T08:02:37.324Z,2.22
2019-01-31T08:05:13.294Z,2.20
2019-01-31T08:07:45.279Z,2.40
2019-01-31T08:13:02.948Z,1.62
2019-01-31T08:15:35.115Z,1.90
2019-01-31T08:18:07.124Z,2.17
2019-01-31T08:23:13.698Z,2.53
2019-01-31T08:25:46.560Z,3.98
2019-01-31T08:28:19.262Z,2.33
2019-01-31T08:33:24.666Z,2.70
2019-01-31T08:35:57.074Z,4.60
2019-01-31T08:38:29.275Z,14.50
2019-01-31T08:43:32.948Z,3.73
2019-01-31T08:46:04.949Z,5.37
2019-01-31T08:48:41.283Z,4.97
2019-01-31T08:51:13.289Z,4.40
2019-01-31T08:58:46.661Z,6.03
2019-01-31T09:01:18.893Z,4.57
2019-01-31T09:03:50.948Z,4.13
2019-01-31T09:06:23.110Z,4.30
2019-01-31T09:11:29.948Z,4.85
2019-01-31T09:16:32.714Z,5.17
2019-01-31T09:19:04.873Z,5.10
2019-01-31T09:22:12.877Z,4.60
2019-01-31T09:25:41.300Z,5.15
2019-01-31T09:29:15.314Z,4.57
2019-01-31T09:32:48.711Z,7.83
2019-01-31T09:36:11.669Z,5.03
2019-01-31T09:39:39.394Z,6.20
2019-01-31T09:42:50.262Z,4.83
2019-01-31T09:49:11.512Z,5.00
2019-01-31T09:52:39.806Z,4.73
2019-01-31T09:56:24.081Z,6.20
2019-01-31T09:59:36.232Z,10.10
2019-01-31T10:05:59.115Z,11.65
2019-01-31T10:12:48.308Z,10.80
2019-01-31T10:16:31.332Z,5.00
2019-01-31T10:20:10.653Z,5.10
2019-01-31T10:23:30.383Z,4.97
2019-01-31T10:27:10.644Z,2.77
2019-01-31T10:30:27.874Z,4.83
2019-01-31T10:34:03.763Z,2.57
2019-01-31T10:37:10.661Z,3.35
2019-01-31T10:40:26.271Z,7.13
2019-01-31T10:43:44.277Z,3.25
2019-01-31T10:46:47.343Z,3.00
2019-01-31T10:49:55.782Z,2.47
2019-01-31T10:53:35.882Z,2.45
2019-01-31T10:57:12.779Z,2.65
2019-01-31T11:00:32.399Z,2.20
2019-01-31T11:04:02.278Z,8.03
2019-01-31T11:07:48.273Z,3.30
2019-01-31T11:11:30.705Z,4.20
2019-01-31T11:14:34.312Z,3.27
2019-01-31T11:18:15.271Z,3.90
2019-01-31T11:22:00.777Z,4.90
2019-01-31T11:25:31.663Z,3.58
2019-01-31T11:28:52.932Z,3.00
2019-01-31T11:32:21.694Z,3.33
2019-01-31T11:35:55.619Z,2.80
2019-01-31T11:39:20.296Z,3.12
2019-01-31T11:42:56.270Z,3.50
2019-01-31T11:46:31.294Z,4.63
2019-01-31T11:49:27.922Z,2.90
2019-01-31T11:52:50.777Z,4.15
2019-01-31T11:56:34.687Z,5.58
2019-01-31T11:59:09.268Z,3.10
2019-01-31T12:01:45.396Z,3.43
2019-01-31T12:04:19.743Z,3.73
2019-01-31T12:06:51.941Z,4.17
2019-01-31T12:09:24.816Z,3.43
2019-01-31T12:11:57.068Z,3.87
2019-01-31T12:14:49.506Z,3.47
2019-01-31T12:17:44.322Z,3.10
2019-01-31T12:20:16.536Z,3.05
2019-01-31T12:22:53.912Z,3.37
2019-01-31T12:25:32.295Z,3.33
2019-01-31T12:28:06.324Z,3.20
2019-01-31T12:30:50.324Z,3.45
2019-01-31T12:33:32.111Z,3.40
2019-01-31T12:38:43.885Z,2.93
2019-01-31T12:41:25.374Z,3.02
2019-01-31T12:44:09.053Z,2.77
2019-01-31T12:49:19.643Z,5.83
2019-01-31T12:51:51.921Z,4.33
2019-01-31T12:54:26.119Z,3.65
2019-01-31T12:59:28.878Z,8.13
2019-01-31T13:02:01.280Z,8.18
2019-01-31T13:04:33.280Z,5.17
2019-01-31T13:09:39.561Z,3.43
2019-01-31T13:12:15.930Z,3.23
2019-01-31T13:14:51.339Z,3.15
2019-01-31T13:17:23.654Z,3.30
2019-01-31T13:19:57.894Z,3.50
2019-01-31T13:22:29.879Z,3.37
2019-01-31T13:25:01.940Z,4.80
2019-01-31T13:27:34.109Z,3.50
2019-01-31T13:32:36.923Z,4.53
2019-01-31T13:35:10.541Z,3.93
2019-01-31T13:37:42.655Z,3.27
2019-01-31T13:40:21.292Z,3.40
2019-01-31T13:42:54.512Z,4.50
2019-01-31T13:45:35.951Z,5.10
2019-01-31T13:48:16.688Z,5.20
2019-01-31T13:50:48.865Z,4.73
2019-01-31T13:53:21.287Z,4.05
2019-01-31T13:55:53.380Z,4.17
2019-01-31T13:58:25.356Z,5.10
2019-01-31T14:00:57.325Z,4.30
2019-01-31T14:03:29.333Z,6.93
2019-01-31T14:06:01.138Z,3.60
2019-01-31T14:13:46.199Z,5.55
2019-01-31T14:16:24.315Z,4.50
2019-01-31T14:18:57.606Z,8.03
2019-01-31T14:21:32.902Z,7.27
2019-01-31T14:24:05.286Z,10.88
2019-01-31T14:27:02.294Z,7.73
2019-01-31T14:29:34.314Z,8.07
2019-01-31T14:32:18.823Z,8.13
2019-01-31T14:40:31.610Z,8.13
2019-01-31T14:43:25.451Z,10.05
2019-01-31T14:46:04.804Z,23.70
2019-01-31T14:48:51.325Z,15.18
2019-01-31T14:51:39.336Z,11.68
2019-01-31T14:54:03.405Z,11.65
2019-01-31T14:56:35.764Z,12.95
2019-01-31T14:59:07.813Z,12.25
2019-01-31T15:01:39.871Z,11.68
2019-01-31T15:04:12.277Z,12.17
2019-01-31T15:09:18.721Z,12.35
2019-01-31T15:11:50.889Z,11.03
2019-01-31T15:14:31.584Z,15.72
2019-01-31T15:16:56.973Z,13.50
2019-01-31T15:19:29.237Z,13.97
2019-01-31T15:24:38.782Z,12.55
2019-01-31T15:27:20.559Z,11.77
2019-01-31T15:31:08.873Z,12.83
2019-01-31T15:34:28.446Z,8.55
2019-01-31T15:37:06.779Z,10.63
2019-01-31T15:39:55.005Z,9.87
2019-01-31T15:45:08.127Z,11.43
2019-01-31T15:50:30.300Z,11.03
2019-01-31T15:53:16.432Z,6.80
2019-01-31T15:58:32.718Z,8.37
2019-01-31T16:03:39.986Z,13.87
2019-01-31T16:06:17.300Z,12.03
2019-01-31T16:08:52.422Z,7.13
2019-01-31T16:11:24.663Z,11.17
2019-01-31T16:13:56.777Z,12.63
2019-01-31T16:16:29.386Z,8.43
2019-01-31T16:19:01.707Z,10.13
2019-01-31T16:21:34.071Z,11.60
2019-01-31T16:24:08.694Z,10.85
2019-01-31T16:26:40.950Z,7.60
2019-01-31T16:29:13.298Z,11.13
2019-01-31T16:34:17.357Z,9.40
2019-01-31T16:39:21.705Z,9.60
2019-01-31T16:41:53.953Z,8.47
2019-01-31T16:44:35.280Z,6.37
2019-01-31T16:47:07.779Z,12.00
2019-01-31T16:49:40.285Z,10.73
2019-01-31T16:54:44.279Z,12.13
2019-01-31T16:59:52.491Z,10.37
2019-01-31T17:02:30.329Z,11.18
2019-01-31T17:05:06.381Z,18.50
2019-01-31T17:07:46.862Z,9.93
2019-01-31T17:10:18.225Z,11.05
2019-01-31T17:15:33.140Z,10.97
2019-01-31T17:18:08.877Z,11.68
2019-01-31T17:20:46.882Z,12.27
2019-01-31T17:23:21.349Z,12.33
2019-01-31T17:25:56.687Z,13.60
2019-01-31T17:28:35.808Z,17.62
2019-01-31T17:31:12.719Z,18.05
2019-01-31T17:33:51.925Z,13.55
2019-01-31T17:36:31.055Z,15.15
2019-01-31T17:39:14.448Z,93.37
2019-01-31T17:42:13.377Z,19.80
2019-01-31T17:45:07.619Z,16.00
2019-01-31T17:48:05.858Z,16.27
2019-01-31T17:51:14.246Z,18.07
2019-01-31T17:53:51.025Z,16.65
2019-01-31T17:56:32.970Z,11.90
2019-01-31T17:59:44.192Z,15.75
2019-01-31T18:02:26.306Z,10.60
2019-01-31T18:05:00.937Z,14.17
2019-01-31T18:08:21.328Z,12.88
2019-01-31T18:12:59.721Z,16.90
2019-01-31T18:14:51.065Z,22.50
2019-01-31T18:20:20.934Z,23.10
2019-01-31T18:23:04.660Z,21.90
2019-01-31T18:25:37.926Z,25.00
2019-01-31T18:28:15.721Z,24.15
2019-01-31T18:30:51.353Z,23.22
2019-01-31T18:33:40.318Z,20.32
2019-01-31T18:36:16.284Z,23.75
2019-01-31T18:41:21.894Z,20.40
2019-01-31T18:44:16.044Z,22.00
2019-01-31T18:46:48.781Z,26.65
2019-01-31T18:49:27.283Z,22.35
2019-01-31T18:54:51.782Z,20.33
2019-01-31T18:57:28.278Z,24.82
2019-01-31T19:02:34.522Z,19.10
2019-01-31T19:05:09.731Z,24.82
2019-01-31T19:07:48.927Z,25.30
2019-01-31T19:10:24.412Z,22.58
2019-01-31T19:12:56.953Z,22.73
2019-01-31T19:15:29.289Z,23.62
2019-01-31T19:20:37.787Z,22.00
2019-01-31T19:23:14.963Z,28.70
2019-01-31T19:25:53.793Z,26.57
2019-01-31T19:28:26.348Z,25.55
2019-01-31T19:31:05.237Z,26.80
2019-01-31T19:33:40.291Z,31.90
2019-01-31T19:41:21.281Z,34.20
2019-01-31T19:46:28.276Z,26.62
2019-01-31T19:49:02.544Z,32.33
2019-01-31T19:51:41.974Z,34.17
2019-01-31T19:54:23.372Z,31.53
2019-01-31T19:57:04.233Z,31.60
2019-01-31T19:59:36.312Z,27.77
2019-01-31T20:02:09.382Z,29.92
2019-01-31T20:04:41.394Z,27.25
2019-01-31T20:07:15.774Z,31.77
2019-01-31T20:09:49.191Z,25.63
2019-01-31T20:14:58.583Z,24.00
2019-01-31T20:17:31.283Z,32.90
2019-01-31T20:20:03.889Z,29.50
2019-01-31T20:22:39.278Z,25.65
2019-01-31T20:30:17.773Z,28.67
2019-01-31T20:32:54.504Z,24.55
2019-01-31T20:35:27.480Z,20.60
2019-01-31T20:38:00.455Z,28.33
2019-01-31T20:40:37.829Z,26.13
2019-01-31T20:43:10.321Z,29.42
2019-01-31T20:45:42.787Z,24.98
2019-01-31T20:48:15.272Z,31.07
2019-01-31T20:53:17.933Z,32.73
2019-01-31T20:55:50.290Z,33.60
2019-01-31T20:58:22.417Z,29.48
2019-01-31T21:00:54.319Z,26.17
2019-01-31T21:03:26.439Z,35.38
2019-01-31T21:05:58.699Z,30.70
2019-01-31T21:08:30.798Z,31.23
2019-01-31T21:11:07.752Z,27.75
2019-01-31T21:13:42.333Z,30.05
2019-01-31T21:18:46.969Z,28.52
2019-01-31T21:21:19.235Z,30.82
2019-01-31T21:23:51.281Z,31.02
2019-01-31T21:28:59.366Z,29.00
2019-01-31T21:31:31.647Z,33.05
2019-01-31T21:34:07.304Z,33.33
2019-01-31T21:36:39.358Z,27.63
2019-01-31T21:39:12.305Z,30.48
2019-01-31T21:41:47.311Z,61.43
2019-01-31T21:44:19.651Z,69.10
2019-01-31T21:47:02.486Z,38.15
2019-01-31T21:49:26.847Z,30.23
2019-01-31T21:51:59.263Z,33.18
2019-01-31T21:54:34.299Z,34.55
2019-01-31T22:02:28.928Z,32.03
2019-01-31T22:05:02.955Z,29.77
2019-01-31T22:07:34.972Z,29.67
2019-01-31T22:10:10.792Z,29.92
2019-01-31T22:12:42.945Z,31.73
2019-01-31T22:17:14.592Z,29.23
2019-01-31T22:19:44.286Z,26.80
2019-01-31T22:24:47.070Z,43.60
2019-01-31T22:27:19.291Z,31.93
2019-01-31T22:29:51.156Z,32.70
2019-01-31T22:32:23.321Z,26.83
2019-01-31T22:34:55.257Z,26.55
2019-01-31T22:39:58.699Z,33.08
2019-01-31T22:42:30.927Z,24.60
2019-01-31T22:45:06.346Z,32.50
2019-01-31T22:47:38.739Z,27.90
2019-01-31T22:50:14.277Z,22.52
2019-01-31T22:55:18.303Z,33.40
2019-01-31T22:57:50.767Z,27.35
2019-01-31T23:01:28.950Z,23.67
2019-01-31T23:04:01.372Z,25.23
2019-01-31T23:06:33.386Z,28.23
2019-01-31T23:09:12.278Z,27.40
2019-01-31T23:14:15.280Z,28.27
2019-01-31T23:19:18.292Z,23.87
2019-01-31T23:24:21.112Z,28.85
2019-01-31T23:26:53.309Z,28.07
2019-01-31T23:29:25.282Z,29.67
2019-01-31T23:34:28.123Z,25.77
2019-01-31T23:37:00.319Z,28.07
2019-01-31T23:39:32.321Z,28.02
2019-01-31T23:47:06.330Z,27.20
2019-01-31T23:49:38.323Z,30.70
2019-01-31T23:52:10.288Z,27.35
